Time;durP1;ratioP1;P1;durP2;ratioP2;P2;SDS_P1;SDS_P2;PMS_P1;PMS_P2;Temp;Humidity;BMP_temperature;BMP_pressure;BME280_temperature;BME280_humidity;BME280_pressure;Samples;Min_cycle;Max_cycle;Signal;HPM_P1;HPM_P2
2022/05/12 00:02:12;;;;;;;8.25;1.65;;;;;;;;;;4956617;28;20039;-87
2022/05/12 00:04:39;;;;;;;4.60;1.40;;;;;;;;;;4963494;28;20454;-86
2022/05/12 00:07:05;;;;;;;6.55;1.90;;;;;;;;;;4961438;28;20039;-86
2022/05/12 00:09:31;;;;;;;12.65;2.65;;;;;;;;;;4959043;28;20045;-87
2022/05/12 00:11:57;;;;;;;3.75;1.88;;;;;;;;;;4957365;28;20575;-87
2022/05/12 00:14:24;;;;;;;4.47;1.52;;;;;;;;;;4960180;28;20722;-87
2022/05/12 00:16:50;;;;;;;7.40;1.50;;;;;;;;;;4966274;28;20050;-87
2022/05/12 00:19:24;;;;;;;4.05;1.45;;;;;;;;;;4961538;28;20168;-86
2022/05/12 00:21:50;;;;;;;3.70;1.20;;;;;;;;;;4961938;28;21358;-87
2022/05/12 00:24:16;;;;;;;8.63;0.88;;;;;;;;;;4961710;28;20054;-86
2022/05/12 00:26:43;;;;;;;4.57;1.88;;;;;;;;;;4965129;28;20069;-87
2022/05/12 00:29:09;;;;;;;5.05;2.15;;;;;;;;;;4962256;28;20046;-86
2022/05/12 00:31:38;;;;;;;4.38;1.20;;;;;;;;;;4959935;28;20460;-87
2022/05/12 00:34:04;;;;;;;4.20;1.45;;;;;;;;;;4966888;28;20046;-86
2022/05/12 00:36:30;;;;;;;5.18;1.17;;;;;;;;;;4963239;28;20034;-87
2022/05/12 00:38:56;;;;;;;1.23;1.00;;;;;;;;;;4974808;28;20034;-87
2022/05/12 00:41:23;;;;;;;3.50;1.25;;;;;;;;;;4961989;28;20129;-86
2022/05/12 00:43:51;;;;;;;5.90;1.30;;;;;;;;;;4962545;28;20034;-86
2022/05/12 00:46:18;;;;;;;6.25;1.25;;;;;;;;;;4964188;28;20144;-87
2022/05/12 00:48:45;;;;;;;6.40;1.35;;;;;;;;;;4961884;28;20087;-87
2022/05/12 00:51:12;;;;;;;3.20;1.00;;;;;;;;;;4982076;28;20529;-88
2022/05/12 00:53:38;;;;;;;1.00;0.77;;;;;;;;;;4964277;28;20031;-87
2022/05/12 00:56:05;;;;;;;4.07;0.75;;;;;;;;;;4965242;28;20027;-87
2022/05/12 00:58:32;;;;;;;3.85;1.05;;;;;;;;;;4958906;28;20981;-87
2022/05/12 01:00:58;;;;;;;2.45;1.33;;;;;;;;;;4983864;28;20124;-86
2022/05/12 01:03:25;;;;;;;6.03;1.30;;;;;;;;;;4959368;28;20038;-87
2022/05/12 01:05:59;;;;;;;2.42;1.10;;;;;;;;;;4966027;28;20097;-86
2022/05/12 01:08:25;;;;;;;3.95;0.90;;;;;;;;;;4976451;28;20027;-86
2022/05/12 01:10:53;;;;;;;4.72;1.30;;;;;;;;;;4963929;28;20169;-86
2022/05/12 01:13:20;;;;;;;5.00;1.02;;;;;;;;;;4963015;28;20023;-86
2022/05/12 01:15:50;;;;;;;5.03;1.25;;;;;;;;;;4965327;28;20121;-87
2022/05/12 01:18:17;;;;;;;5.47;1.67;;;;;;;;;;4954164;28;20098;-86
2022/05/12 01:20:44;;;;;;;4.70;1.33;;;;;;;;;;4967960;28;20034;-87
2022/05/12 01:23:23;;;;;;;3.80;1.30;;;;;;;;;;4965648;28;20038;-86
2022/05/12 01:25:49;;;;;;;10.52;1.25;;;;;;;;;;4957953;28;20759;-86
2022/05/12 01:28:15;;;;;;;5.32;1.20;;;;;;;;;;4968186;28;20806;-87
2022/05/12 01:30:41;;;;;;;4.70;1.35;;;;;;;;;;4961999;28;20073;-86
2022/05/12 01:33:07;;;;;;;8.25;1.05;;;;;;;;;;4974447;28;20456;-86
2022/05/12 01:35:33;;;;;;;3.42;1.40;;;;;;;;;;4960813;28;20041;-87
2022/05/12 01:37:59;;;;;;;3.50;1.15;;;;;;;;;;4977543;28;20328;-86
2022/05/12 01:40:26;;;;;;;4.22;1.33;;;;;;;;;;4958568;28;20046;-86
2022/05/12 01:42:53;;;;;;;8.05;1.52;;;;;;;;;;4959552;28;20026;-86
2022/05/12 01:45:19;;;;;;;8.73;1.25;;;;;;;;;;4976513;28;20018;-87
2022/05/12 01:47:46;;;;;;;5.40;1.30;;;;;;;;;;4962364;28;20031;-86
2022/05/12 01:50:13;;;;;;;6.47;1.38;;;;;;;;;;4952535;28;20089;-87
2022/05/12 01:52:43;;;;;;;5.75;1.20;;;;;;;;;;4969808;28;20534;-86
2022/05/12 01:55:09;;;;;;;6.70;1.92;;;;;;;;;;4981413;28;20033;-86
2022/05/12 01:57:35;;;;;;;4.80;1.42;;;;;;;;;;4967247;28;20038;-87
2022/05/12 02:00:02;;;;;;;2.03;1.38;;;;;;;;;;4957777;28;20034;-86
2022/05/12 02:02:28;;;;;;;15.32;1.48;;;;;;;;;;4967741;28;20035;-86
2022/05/12 02:05:00;;;;;;;11.23;2.00;;;;;;;;;;4966129;28;20047;-85
2022/05/12 02:07:26;;;;;;;4.18;1.52;;;;;;;;;;4957521;28;20027;-85
2022/05/12 02:09:52;;;;;;;7.80;1.55;;;;;;;;;;4959876;28;20022;-87
2022/05/12 02:12:18;;;;;;;2.40;1.30;;;;;;;;;;4961944;28;20053;-86
2022/05/12 02:14:44;;;;;;;5.70;1.85;;;;;;;;;;4966416;28;20030;-86
2022/05/12 02:17:10;;;;;;;5.40;2.05;;;;;;;;;;4982742;28;20026;-86
2022/05/12 02:19:36;;;;;;;7.47;1.83;;;;;;;;;;4978961;28;20080;-87
2022/05/12 02:22:03;;;;;;;10.43;1.90;;;;;;;;;;4959406;28;20039;-86
2022/05/12 02:24:29;;;;;;;8.15;2.05;;;;;;;;;;4955087;28;20062;-85
2022/05/12 02:26:56;;;;;;;4.78;1.90;;;;;;;;;;4961876;28;20133;-86
2022/05/12 02:29:23;;;;;;;5.90;2.15;;;;;;;;;;4962018;28;20037;-86
2022/05/12 02:31:49;;;;;;;6.88;3.47;;;;;;;;;;4963769;28;20037;-87
2022/05/12 02:34:17;;;;;;;11.65;2.10;;;;;;;;;;4980050;28;20021;-87
2022/05/12 02:36:59;;;;;;;13.50;2.60;;;;;;;;;;4957193;28;20125;-87
2022/05/12 02:39:25;;;;;;;7.90;2.25;;;;;;;;;;4959725;28;20425;-87
2022/05/12 02:41:51;;;;;;;13.93;2.63;;;;;;;;;;4978956;28;20640;-85
2022/05/12 02:44:17;;;;;;;3.63;1.67;;;;;;;;;;4962988;28;20033;-85
2022/05/12 02:46:43;;;;;;;11.68;2.10;;;;;;;;;;4955112;28;20459;-85
2022/05/12 02:49:09;;;;;;;6.75;2.45;;;;;;;;;;4960877;28;20088;-86
2022/05/12 02:51:36;;;;;;;7.90;2.60;;;;;;;;;;4963527;28;20059;-86
2022/05/12 02:54:02;;;;;;;10.57;2.65;;;;;;;;;;4959775;28;20073;-86
2022/05/12 02:56:28;;;;;;;7.70;2.55;;;;;;;;;;4962912;28;20089;-85
2022/05/12 02:58:54;;;;;;;11.70;2.53;;;;;;;;;;4974333;28;20514;-87
2022/05/12 03:01:20;;;;;;;8.48;2.25;;;;;;;;;;4962295;28;20038;-86
2022/05/12 03:03:46;;;;;;;7.82;2.83;;;;;;;;;;4960485;28;20050;-86
2022/05/12 03:06:12;;;;;;;10.70;2.70;;;;;;;;;;4973213;28;20680;-87
2022/05/12 03:08:42;;;;;;;14.30;2.95;;;;;;;;;;4981133;28;20502;-86
2022/05/12 03:11:08;;;;;;;7.05;2.65;;;;;;;;;;4953963;28;21536;-86
2022/05/12 03:13:35;;;;;;;10.95;3.13;;;;;;;;;;4970957;28;20425;-86
2022/05/12 03:16:01;;;;;;;8.82;3.00;;;;;;;;;;4961288;28;20695;-86
2022/05/12 03:18:27;;;;;;;9.85;3.15;;;;;;;;;;4959595;28;20030;-85
2022/05/12 03:20:53;;;;;;;17.63;3.40;;;;;;;;;;4958778;28;20440;-86
2022/05/12 03:23:22;;;;;;;6.53;3.05;;;;;;;;;;4979863;28;20042;-85
2022/05/12 03:25:48;;;;;;;10.45;2.53;;;;;;;;;;4953067;28;20085;-85
2022/05/12 03:28:14;;;;;;;9.85;3.40;;;;;;;;;;4955780;28;20027;-86
2022/05/12 03:30:43;;;;;;;19.20;3.75;;;;;;;;;;4974329;28;20042;-86
2022/05/12 03:33:10;;;;;;;8.75;3.40;;;;;;;;;;4960513;28;20827;-85
2022/05/12 03:35:36;;;;;;;19.63;6.00;;;;;;;;;;4977983;28;20061;-86
2022/05/12 03:38:02;;;;;;;13.18;3.45;;;;;;;;;;4958281;28;20041;-85
2022/05/12 03:40:30;;;;;;;10.80;3.50;;;;;;;;;;4962332;28;20069;-86
2022/05/12 03:42:59;;;;;;;13.50;3.50;;;;;;;;;;4963462;28;20046;-87
2022/05/12 03:45:29;;;;;;;21.02;3.55;;;;;;;;;;4960157;28;20034;-87
2022/05/12 03:47:55;;;;;;;12.57;4.68;;;;;;;;;;4960161;28;20034;-87
2022/05/12 03:50:23;;;;;;;11.75;4.70;;;;;;;;;;4962477;28;20482;-87
2022/05/12 03:52:49;;;;;;;7.63;3.97;;;;;;;;;;4961715;28;20042;-85
2022/05/12 03:55:17;;;;;;;8.88;3.17;;;;;;;;;;4979736;28;20057;-85
2022/05/12 03:57:44;;;;;;;19.35;4.57;;;;;;;;;;4962106;28;20030;-85
2022/05/12 04:00:11;;;;;;;13.63;3.25;;;;;;;;;;4960243;28;20038;-85
2022/05/12 04:02:37;;;;;;;18.90;3.75;;;;;;;;;;4959751;28;20031;-85
2022/05/12 04:05:04;;;;;;;13.02;3.90;;;;;;;;;;4957198;28;20560;-86
2022/05/12 04:07:30;;;;;;;10.05;3.65;;;;;;;;;;4976870;28;20035;-86
2022/05/12 04:09:56;;;;;;;14.20;4.25;;;;;;;;;;4965400;28;20031;-86
2022/05/12 04:12:22;;;;;;;10.60;3.67;;;;;;;;;;4962305;28;20454;-86
2022/05/12 04:14:48;;;;;;;13.10;4.00;;;;;;;;;;4965934;28;20522;-85
2022/05/12 04:17:16;;;;;;;13.50;4.00;;;;;;;;;;4962067;28;20030;-85
2022/05/12 04:19:43;;;;;;;13.05;4.57;;;;;;;;;;4968262;28;20061;-86
2022/05/12 04:22:09;;;;;;;17.05;4.45;;;;;;;;;;4965172;28;20036;-86
2022/05/12 04:24:35;;;;;;;12.55;3.95;;;;;;;;;;4962318;28;20026;-85
2022/05/12 04:27:01;;;;;;;18.02;4.55;;;;;;;;;;4963594;28;20126;-86
2022/05/12 04:29:27;;;;;;;16.27;4.78;;;;;;;;;;4963304;28;20038;-86
2022/05/12 04:31:53;;;;;;;17.90;4.15;;;;;;;;;;4966210;28;20026;-86
2022/05/12 04:37:06;;;;;;;14.45;5.28;;;;;;;;;;4929142;28;20042;-85
2022/05/12 04:39:32;;;;;;;8.25;4.20;;;;;;;;;;4965145;28;20030;-85
2022/05/12 04:41:58;;;;;;;16.83;4.80;;;;;;;;;;4967334;28;20041;-86
2022/05/12 04:44:26;;;;;;;13.07;3.97;;;;;;;;;;4960074;28;20030;-85
2022/05/12 04:46:52;;;;;;;13.93;5.22;;;;;;;;;;4960063;28;20033;-84
2022/05/12 04:49:18;;;;;;;9.40;3.78;;;;;;;;;;4964579;28;20034;-85
2022/05/12 04:51:44;;;;;;;14.30;4.40;;;;;;;;;;4980892;28;20517;-85
2022/05/12 04:54:10;;;;;;;19.05;4.97;;;;;;;;;;4966441;28;20030;-85
2022/05/12 04:56:37;;;;;;;8.95;4.03;;;;;;;;;;4986821;28;20413;-85
2022/05/12 04:59:05;;;;;;;8.73;3.20;;;;;;;;;;4967559;28;20022;-86
2022/05/12 05:01:31;;;;;;;10.48;3.40;;;;;;;;;;4961938;28;20027;-84
2022/05/12 05:04:00;;;;;;;11.18;4.45;;;;;;;;;;4967010;28;20026;-86
2022/05/12 05:06:26;;;;;;;9.73;3.90;;;;;;;;;;4981316;28;20081;-86
2022/05/12 05:08:52;;;;;;;11.95;4.20;;;;;;;;;;4963252;28;20042;-87
2022/05/12 05:11:18;;;;;;;12.75;4.70;;;;;;;;;;4967050;28;20036;-86
2022/05/12 05:13:44;;;;;;;14.70;4.40;;;;;;;;;;4957770;28;20046;-85
2022/05/12 05:16:11;;;;;;;12.50;4.28;;;;;;;;;;4965855;28;20038;-86
2022/05/12 05:18:38;;;;;;;12.13;4.38;;;;;;;;;;4964327;28;20561;-87
2022/05/12 05:21:07;;;;;;;12.68;5.18;;;;;;;;;;4956841;28;20488;-85
2022/05/12 05:23:34;;;;;;;9.02;4.65;;;;;;;;;;4953075;28;20045;-86
2022/05/12 05:26:00;;;;;;;10.25;4.35;;;;;;;;;;4960898;28;20027;-85
2022/05/12 05:28:26;;;;;;;13.90;4.20;;;;;;;;;;4958027;28;20026;-87
2022/05/12 05:30:52;;;;;;;9.30;3.85;;;;;;;;;;4965678;28;20030;-85
2022/05/12 05:33:19;;;;;;;9.65;4.40;;;;;;;;;;4961658;28;20049;-85
2022/05/12 05:35:45;;;;;;;10.80;4.30;;;;;;;;;;4950164;28;20577;-86
2022/05/12 05:38:11;;;;;;;14.48;4.88;;;;;;;;;;4962834;28;20038;-85
2022/05/12 05:40:37;;;;;;;10.05;4.20;;;;;;;;;;4960892;28;20037;-85
2022/05/12 05:43:03;;;;;;;10.68;4.63;;;;;;;;;;4955816;28;20423;-87
2022/05/12 05:45:29;;;;;;;14.75;3.83;;;;;;;;;;4963750;28;20494;-87
2022/05/12 05:47:58;;;;;;;12.48;5.03;;;;;;;;;;4978513;28;20085;-87
2022/05/12 05:50:29;;;;;;;6.72;3.78;;;;;;;;;;4955000;28;20734;-87
2022/05/12 05:55:40;;;;;;;9.25;4.07;;;;;;;;;;4986491;28;20177;-87
2022/05/12 05:58:06;;;;;;;10.73;3.35;;;;;;;;;;4981729;28;20545;-88
2022/05/12 06:00:34;;;;;;;12.55;3.70;;;;;;;;;;4983512;28;20078;-88
2022/05/12 06:03:00;;;;;;;14.32;4.05;;;;;;;;;;4960300;28;20111;-85
2022/05/12 06:05:27;;;;;;;11.25;3.63;;;;;;;;;;4962579;28;20825;-87
2022/05/12 06:07:53;;;;;;;12.98;3.60;;;;;;;;;;4966989;28;20105;-87
2022/05/12 06:10:20;;;;;;;11.45;3.00;;;;;;;;;;4952230;28;20026;-87
2022/05/12 06:12:48;;;;;;;15.93;3.80;;;;;;;;;;4964115;28;20031;-87
2022/05/12 06:15:15;;;;;;;10.30;3.60;;;;;;;;;;4959432;28;20045;-87
2022/05/12 06:17:41;;;;;;;14.63;4.03;;;;;;;;;;4978249;28;20088;-87
2022/05/12 06:20:09;;;;;;;9.52;3.58;;;;;;;;;;4963776;28;20030;-87
2022/05/12 06:22:35;;;;;;;13.68;2.67;;;;;;;;;;4978486;28;20174;-86
2022/05/12 06:25:05;;;;;;;7.30;2.60;;;;;;;;;;4961422;28;20609;-86
2022/05/12 06:27:32;;;;;;;10.52;2.45;;;;;;;;;;4962627;28;20714;-86
2022/05/12 06:29:58;;;;;;;8.02;2.22;;;;;;;;;;4979868;28;20092;-85
2022/05/12 06:32:24;;;;;;;6.82;2.97;;;;;;;;;;4965178;28;20018;-84
2022/05/12 06:34:50;;;;;;;10.52;2.83;;;;;;;;;;4961540;28;20085;-87
2022/05/12 06:37:16;;;;;;;11.20;2.35;;;;;;;;;;4960284;28;20094;-85
2022/05/12 06:39:42;;;;;;;10.70;2.25;;;;;;;;;;4981272;28;20405;-86
2022/05/12 06:42:09;;;;;;;8.70;2.33;;;;;;;;;;4978482;28;20763;-86
2022/05/12 06:44:35;;;;;;;10.23;1.90;;;;;;;;;;4962233;28;20035;-87
2022/05/12 06:47:02;;;;;;;6.65;2.28;;;;;;;;;;4982376;28;20030;-87
2022/05/12 06:49:28;;;;;;;13.55;2.67;;;;;;;;;;4961956;28;20026;-87
2022/05/12 06:51:55;;;;;;;9.68;2.20;;;;;;;;;;4958858;28;20026;-88
2022/05/12 06:54:22;;;;;;;4.10;1.83;;;;;;;;;;4960008;28;20639;-87
2022/05/12 06:56:49;;;;;;;8.10;2.15;;;;;;;;;;4966802;28;20031;-88
2022/05/12 06:59:15;;;;;;;8.60;2.60;;;;;;;;;;4967048;28;20046;-87
2022/05/12 07:01:47;;;;;;;6.72;2.75;;;;;;;;;;4965892;28;20115;-86
2022/05/12 07:04:13;;;;;;;12.95;2.17;;;;;;;;;;4977056;28;20553;-87
2022/05/12 07:06:47;;;;;;;6.00;2.50;;;;;;;;;;4966311;28;20617;-88
2022/05/12 07:09:13;;;;;;;12.90;2.50;;;;;;;;;;4961861;28;20605;-87
2022/05/12 07:11:39;;;;;;;8.43;2.00;;;;;;;;;;4963258;28;20375;-87
2022/05/12 07:14:05;;;;;;;8.15;1.83;;;;;;;;;;4963434;28;20031;-88
2022/05/12 07:16:31;;;;;;;6.68;1.83;;;;;;;;;;4957734;28;20042;-87
2022/05/12 07:18:58;;;;;;;11.27;1.85;;;;;;;;;;4977716;28;20037;-87
2022/05/12 07:26:54;;;;;;;5.20;1.85;;;;;;;;;;4984891;28;20435;-86
2022/05/12 07:29:21;;;;;;;6.18;1.80;;;;;;;;;;4980881;28;20089;-86
2022/05/12 07:31:48;;;;;;;7.35;1.75;;;;;;;;;;4960760;28;20043;-87
2022/05/12 07:34:15;;;;;;;11.60;2.20;;;;;;;;;;4964729;28;20027;-87
2022/05/12 07:36:45;;;;;;;9.82;1.73;;;;;;;;;;4964664;28;20038;-87
2022/05/12 07:39:12;;;;;;;11.77;1.83;;;;;;;;;;4969139;28;20038;-87
2022/05/12 07:41:41;;;;;;;7.63;1.83;;;;;;;;;;4966149;28;20097;-87
2022/05/12 07:44:19;;;;;;;13.13;3.35;;;;;;;;;;4962559;28;20489;-86
2022/05/12 07:46:49;;;;;;;6.80;1.80;;;;;;;;;;4965887;28;20034;-87
2022/05/12 07:49:15;;;;;;;11.13;1.70;;;;;;;;;;4965417;28;20050;-87
2022/05/12 07:51:41;;;;;;;5.22;1.90;;;;;;;;;;4978383;28;20129;-87
2022/05/12 07:54:08;;;;;;;9.32;2.10;;;;;;;;;;4976729;28;20031;-86
2022/05/12 07:56:34;;;;;;;8.70;1.80;;;;;;;;;;4982123;28;20504;-87
2022/05/12 07:59:00;;;;;;;8.50;2.33;;;;;;;;;;4964423;28;20046;-86
2022/05/12 08:01:27;;;;;;;4.28;1.60;;;;;;;;;;4964260;28;20035;-87
2022/05/12 08:03:54;;;;;;;7.20;1.80;;;;;;;;;;4981096;28;20552;-87
2022/05/12 08:06:20;;;;;;;6.65;2.05;;;;;;;;;;4966275;28;20474;-86
2022/05/12 08:08:48;;;;;;;8.32;1.77;;;;;;;;;;4964746;28;20027;-86
2022/05/12 08:11:14;;;;;;;5.57;1.60;;;;;;;;;;4963793;28;20812;-87
2022/05/12 08:13:47;;;;;;;6.22;1.77;;;;;;;;;;4965834;28;20030;-86
2022/05/12 08:16:13;;;;;;;5.35;1.40;;;;;;;;;;4964364;28;20045;-87
2022/05/12 08:18:39;;;;;;;6.00;1.65;;;;;;;;;;4963324;28;20056;-87
2022/05/12 08:21:05;;;;;;;6.30;2.17;;;;;;;;;;4966568;28;20136;-87
2022/05/12 08:23:32;;;;;;;6.82;1.90;;;;;;;;;;4967194;28;20093;-85
2022/05/12 08:25:58;;;;;;;11.25;2.40;;;;;;;;;;4964646;28;20039;-87
2022/05/12 08:28:24;;;;;;;2.78;1.30;;;;;;;;;;4956059;28;20136;-87
2022/05/12 08:30:51;;;;;;;6.25;1.60;;;;;;;;;;4966918;28;20473;-87
2022/05/12 08:33:17;;;;;;;7.38;1.65;;;;;;;;;;4970905;28;20038;-87
2022/05/12 08:35:44;;;;;;;7.10;1.75;;;;;;;;;;4968388;28;20042;-86
2022/05/12 08:38:11;;;;;;;6.53;2.10;;;;;;;;;;4966641;28;20070;-88
2022/05/12 08:40:46;;;;;;;8.10;1.60;;;;;;;;;;4963801;28;20038;-87
2022/05/12 08:43:15;;;;;;;8.38;1.88;;;;;;;;;;4970834;28;20133;-86
2022/05/12 08:45:41;;;;;;;6.25;1.02;;;;;;;;;;4971762;28;20212;-86
2022/05/12 08:48:09;;;;;;;3.60;1.77;;;;;;;;;;4971563;28;20034;-86
2022/05/12 08:50:36;;;;;;;4.35;1.52;;;;;;;;;;4985842;28;20054;-86
2022/05/12 08:53:05;;;;;;;6.78;1.90;;;;;;;;;;4971501;28;20041;-85
2022/05/12 08:55:35;;;;;;;5.32;2.22;;;;;;;;;;4978095;28;20045;-85
2022/05/12 08:58:06;;;;;;;6.85;1.52;;;;;;;;;;4982717;28;20110;-86
2022/05/12 09:00:36;;;;;;;4.38;2.00;;;;;;;;;;4966282;28;20057;-85
2022/05/12 09:03:12;;;;;;;3.97;2.00;;;;;;;;;;4953640;28;20035;-85
2022/05/12 09:05:42;;;;;;;10.52;1.65;;;;;;;;;;4966350;28;20026;-86
2022/05/12 09:08:17;;;;;;;6.50;2.03;;;;;;;;;;4955629;28;20165;-87
2022/05/12 09:10:43;;;;;;;7.63;1.58;;;;;;;;;;4962364;28;20022;-86
2022/05/12 09:13:15;;;;;;;7.05;1.48;;;;;;;;;;4960251;28;20883;-85
2022/05/12 09:15:44;;;;;;;10.23;2.85;;;;;;;;;;4958865;28;20100;-88
2022/05/12 09:18:15;;;;;;;7.78;1.77;;;;;;;;;;4954605;28;20038;-86
2022/05/12 09:20:42;;;;;;;3.95;1.40;;;;;;;;;;4966378;28;20730;-86
2022/05/12 09:23:08;;;;;;;4.00;1.73;;;;;;;;;;4965307;28;20030;-86
2022/05/12 09:25:41;;;;;;;8.52;1.50;;;;;;;;;;4981151;28;20114;-86
2022/05/12 09:28:17;;;;;;;12.20;1.20;;;;;;;;;;4959146;28;20022;-86
2022/05/12 09:30:44;;;;;;;5.80;1.80;;;;;;;;;;4963761;28;20029;-86
2022/05/12 09:33:10;;;;;;;7.28;2.17;;;;;;;;;;4959384;28;20512;-86
2022/05/12 09:35:36;;;;;;;8.82;2.40;;;;;;;;;;4986941;28;20752;-85
2022/05/12 09:38:19;;;;;;;7.72;1.60;;;;;;;;;;4962246;28;20069;-86
2022/05/12 09:40:45;;;;;;;3.30;1.50;;;;;;;;;;4965714;28;20037;-87
2022/05/12 09:43:17;;;;;;;4.13;1.33;;;;;;;;;;4982765;28;20037;-85
2022/05/12 09:45:44;;;;;;;11.27;2.10;;;;;;;;;;4965281;28;20497;-86
2022/05/12 09:48:21;;;;;;;3.30;1.60;;;;;;;;;;4960965;28;20023;-87
2022/05/12 09:50:48;;;;;;;7.93;1.50;;;;;;;;;;4958765;28;20026;-87
2022/05/12 09:53:23;;;;;;;4.00;1.40;;;;;;;;;;4975948;28;20030;-87
2022/05/12 09:56:04;;;;;;;5.33;1.30;;;;;;;;;;4952043;28;20065;-86
2022/05/12 09:58:36;;;;;;;9.80;1.50;;;;;;;;;;4955927;28;20046;-87
2022/05/12 10:01:09;;;;;;;11.63;1.65;;;;;;;;;;4951568;28;20039;-87
2022/05/12 10:09:20;;;;;;;14.68;4.15;;;;;;;;;;4978029;28;20469;-87
2022/05/12 10:11:49;;;;;;;5.15;1.20;;;;;;;;;;4979002;28;20040;-87
2022/05/12 10:14:19;;;;;;;7.18;1.95;;;;;;;;;;4964852;28;20049;-87
2022/05/12 10:16:45;;;;;;;4.68;1.88;;;;;;;;;;4956064;28;20108;-87
2022/05/12 10:19:20;;;;;;;10.98;1.80;;;;;;;;;;4960729;28;20062;-87
2022/05/12 10:21:48;;;;;;;6.00;1.90;;;;;;;;;;4957184;28;20030;-87
2022/05/12 10:24:27;;;;;;;5.88;1.77;;;;;;;;;;4984111;28;20100;-88
2022/05/12 10:27:14;;;;;;;8.73;1.70;;;;;;;;;;4963823;28;20054;-86
2022/05/12 10:29:59;;;;;;;4.70;1.90;;;;;;;;;;4961109;28;20401;-86
2022/05/12 10:32:43;;;;;;;6.72;1.70;;;;;;;;;;4959792;28;20788;-87
2022/05/12 10:35:28;;;;;;;7.00;2.13;;;;;;;;;;4965989;28;20030;-86
2022/05/12 10:38:07;;;;;;;7.60;1.88;;;;;;;;;;4952915;28;20041;-85
2022/05/12 10:40:39;;;;;;;8.93;2.10;;;;;;;;;;4950469;28;20042;-85
2022/05/12 10:43:15;;;;;;;9.77;1.75;;;;;;;;;;4963275;28;20030;-86
2022/05/12 10:45:46;;;;;;;2.30;1.08;;;;;;;;;;4955913;28;20076;-87
2022/05/12 10:48:31;;;;;;;3.78;1.30;;;;;;;;;;4964105;28;20488;-86
2022/05/12 10:51:15;;;;;;;4.35;1.38;;;;;;;;;;4977014;28;20101;-88
2022/05/12 10:53:59;;;;;;;6.78;1.60;;;;;;;;;;4979710;28;20038;-86
2022/05/12 10:56:32;;;;;;;5.82;1.83;;;;;;;;;;4962244;28;20034;-87
2022/05/12 10:59:07;;;;;;;6.43;1.58;;;;;;;;;;4954162;28;20046;-86
2022/05/12 11:01:44;;;;;;;5.85;1.58;;;;;;;;;;4959637;28;20276;-87
2022/05/12 11:04:13;;;;;;;3.90;1.23;;;;;;;;;;4964633;28;20038;-87
2022/05/12 11:06:55;;;;;;;10.20;1.50;;;;;;;;;;4978666;28;20096;-86
2022/05/12 11:09:29;;;;;;;4.72;1.27;;;;;;;;;;4959268;28;20030;-86
2022/05/12 11:11:57;;;;;;;7.37;1.53;;;;;;;;;;4957385;28;20081;-86
2022/05/12 11:14:31;;;;;;;4.97;1.30;;;;;;;;;;4966940;28;20316;-85
2022/05/12 11:17:04;;;;;;;8.63;2.00;;;;;;;;;;4956432;28;20114;-86
2022/05/12 11:19:30;;;;;;;3.30;1.55;;;;;;;;;;4957393;28;20023;-87
2022/05/12 11:22:15;;;;;;;8.27;1.58;;;;;;;;;;4955201;28;20128;-87
2022/05/12 11:25:02;;;;;;;2.45;1.40;;;;;;;;;;4963467;28;20513;-87
2022/05/12 11:27:43;;;;;;;1.83;1.27;;;;;;;;;;4958464;28;20805;-87
2022/05/12 11:30:12;;;;;;;8.60;1.58;;;;;;;;;;4967792;28;20030;-87
2022/05/12 11:32:44;;;;;;;4.25;1.20;;;;;;;;;;4967354;28;20622;-86
2022/05/12 11:35:13;;;;;;;4.13;1.17;;;;;;;;;;4984478;28;20038;-86
2022/05/12 11:37:39;;;;;;;4.78;1.45;;;;;;;;;;4963404;28;20034;-85
2022/05/12 11:40:09;;;;;;;6.28;1.27;;;;;;;;;;4966511;28;20039;-86
2022/05/12 11:45:47;;;;;;;4.63;1.40;;;;;;;;;;4982620;28;20049;-88
2022/05/12 11:48:19;;;;;;;4.68;1.25;;;;;;;;;;4965177;28;20050;-87
2022/05/12 11:51:04;;;;;;;3.25;1.13;;;;;;;;;;4972118;28;20042;-86
2022/05/12 11:53:53;;;;;;;4.65;1.17;;;;;;;;;;4965701;28;20062;-87
2022/05/12 11:56:34;;;;;;;8.95;2.00;;;;;;;;;;4957029;28;20512;-86
2022/05/12 11:59:36;;;;;;;2.42;1.52;;;;;;;;;;4965449;28;20042;-86
2022/05/12 12:02:06;;;;;;;5.18;1.52;;;;;;;;;;4886301;29;20048;-87
2022/05/12 12:04:49;;;;;;;3.65;1.63;;;;;;;;;;4947234;28;20046;-87
2022/05/12 12:07:16;;;;;;;3.92;1.20;;;;;;;;;;4955805;28;20047;-86
2022/05/12 12:09:43;;;;;;;2.03;1.48;;;;;;;;;;4968505;28;20355;-86
2022/05/12 12:12:10;;;;;;;5.50;1.92;;;;;;;;;;4963945;28;20108;-87
2022/05/12 12:14:42;;;;;;;10.45;1.48;;;;;;;;;;4986508;28;20056;-87
2022/05/12 12:17:10;;;;;;;13.30;1.95;;;;;;;;;;4976228;28;20144;-87
2022/05/12 12:19:49;;;;;;;3.42;1.90;;;;;;;;;;4981465;28;20151;-86
2022/05/12 12:22:22;;;;;;;15.55;2.08;;;;;;;;;;4957164;28;20494;-87
2022/05/12 12:25:06;;;;;;;3.97;1.75;;;;;;;;;;4984556;28;20030;-86
2022/05/12 12:27:36;;;;;;;9.48;2.55;;;;;;;;;;4965817;28;20022;-87
2022/05/12 12:30:38;;;;;;;4.97;1.48;;;;;;;;;;4967849;28;20077;-87
2022/05/12 12:33:18;;;;;;;4.25;1.27;;;;;;;;;;4888908;29;20035;-86
2022/05/12 12:35:57;;;;;;;7.85;1.90;;;;;;;;;;4968436;28;20060;-86
2022/05/12 12:38:41;;;;;;;3.83;1.60;;;;;;;;;;4968403;28;20495;-85
2022/05/12 12:41:08;;;;;;;2.95;1.40;;;;;;;;;;4964644;28;20109;-86
2022/05/12 12:43:37;;;;;;;6.57;1.70;;;;;;;;;;4968065;28;20125;-86
2022/05/12 12:46:13;;;;;;;4.28;1.20;;;;;;;;;;4964667;28;20532;-86
2022/05/12 12:48:44;;;;;;;4.90;1.50;;;;;;;;;;4981183;28;20033;-87
2022/05/12 12:51:10;;;;;;;2.22;1.10;;;;;;;;;;4981394;28;20062;-86
2022/05/12 12:56:33;;;;;;;3.33;1.13;;;;;;;;;;4980872;28;20126;-86
2022/05/12 12:58:59;;;;;;;2.58;1.25;;;;;;;;;;4963182;28;20056;-86
2022/05/12 13:01:35;;;;;;;3.58;1.60;;;;;;;;;;4981315;28;20031;-85
2022/05/12 13:04:01;;;;;;;2.78;1.00;;;;;;;;;;4968748;28;20048;-86
2022/05/12 13:06:30;;;;;;;8.35;1.45;;;;;;;;;;4964111;28;20034;-86
2022/05/12 13:09:08;;;;;;;5.47;1.60;;;;;;;;;;4967923;28;20602;-87
2022/05/12 13:11:38;;;;;;;4.85;1.55;;;;;;;;;;4966022;28;20053;-86
2022/05/12 13:14:05;;;;;;;3.65;1.45;;;;;;;;;;4969717;28;20054;-87
2022/05/12 13:16:35;;;;;;;3.67;1.30;;;;;;;;;;4987260;28;20485;-87
2022/05/12 13:19:01;;;;;;;3.67;1.10;;;;;;;;;;4964087;28;20104;-86
2022/05/12 13:21:34;;;;;;;3.78;1.20;;;;;;;;;;4966800;28;20462;-86
2022/05/12 13:24:02;;;;;;;2.50;1.17;;;;;;;;;;4965353;28;20496;-86
2022/05/12 13:26:29;;;;;;;5.95;1.30;;;;;;;;;;4961251;28;20046;-86
2022/05/12 13:28:55;;;;;;;6.78;1.20;;;;;;;;;;4965681;28;20046;-87
2022/05/12 13:31:35;;;;;;;5.28;1.75;;;;;;;;;;4979106;28;20093;-86
2022/05/12 13:34:04;;;;;;;4.80;1.45;;;;;;;;;;4964661;28;20027;-87
2022/05/12 13:36:42;;;;;;;1.95;0.95;;;;;;;;;;4962513;28;20048;-86
2022/05/12 13:39:13;;;;;;;6.82;1.95;;;;;;;;;;4962842;28;21447;-87
2022/05/12 13:41:47;;;;;;;4.95;1.95;;;;;;;;;;4978825;28;20031;-86
2022/05/12 13:44:16;;;;;;;5.45;1.83;;;;;;;;;;4978151;28;20029;-85
2022/05/12 13:46:48;;;;;;;10.95;1.95;;;;;;;;;;4962338;28;20108;-86
2022/05/12 13:49:15;;;;;;;6.97;2.45;;;;;;;;;;4967441;28;20137;-86
2022/05/12 13:51:47;;;;;;;6.13;1.63;;;;;;;;;;4960606;28;20023;-86
2022/05/12 13:54:24;;;;;;;2.95;1.30;;;;;;;;;;4966207;28;20031;-86
2022/05/12 13:56:50;;;;;;;3.08;1.17;;;;;;;;;;4960793;28;20022;-86
2022/05/12 13:59:24;;;;;;;4.82;1.73;;;;;;;;;;4965464;28;20047;-86
2022/05/12 14:01:50;;;;;;;2.38;1.13;;;;;;;;;;4963011;28;20057;-87
2022/05/12 14:04:26;;;;;;;5.88;1.40;;;;;;;;;;4966217;28;20104;-86
2022/05/12 14:06:56;;;;;;;2.13;0.95;;;;;;;;;;4973221;28;20037;-86
2022/05/12 14:09:27;;;;;;;6.88;1.45;;;;;;;;;;4955080;28;20149;-87
2022/05/12 14:11:59;;;;;;;5.05;1.38;;;;;;;;;;4976574;28;20026;-86
2022/05/12 14:20:09;;;;;;;5.13;1.58;;;;;;;;;;4975427;28;20089;-87
2022/05/12 14:22:35;;;;;;;7.32;1.40;;;;;;;;;;4969554;28;20019;-87
2022/05/12 14:25:01;;;;;;;3.85;1.02;;;;;;;;;;4961319;28;20042;-89
2022/05/12 14:27:27;;;;;;;4.07;1.55;;;;;;;;;;4962144;28;20412;-86
2022/05/12 14:29:53;;;;;;;3.45;1.15;;;;;;;;;;4953694;28;20030;-87
2022/05/12 14:32:19;;;;;;;6.93;1.33;;;;;;;;;;4958369;28;20621;-87
2022/05/12 14:34:47;;;;;;;5.72;1.50;;;;;;;;;;4963054;28;20026;-86
2022/05/12 14:37:13;;;;;;;9.70;2.55;;;;;;;;;;4961583;28;20628;-86
2022/05/12 14:39:39;;;;;;;4.47;1.35;;;;;;;;;;4963103;28;20157;-86
2022/05/12 14:42:06;;;;;;;4.38;1.45;;;;;;;;;;4962824;28;20022;-86
2022/05/12 14:44:33;;;;;;;3.35;1.20;;;;;;;;;;4978602;28;20030;-86
2022/05/12 14:47:04;;;;;;;4.75;2.50;;;;;;;;;;4959991;28;20811;-86
2022/05/12 14:49:30;;;;;;;7.47;1.63;;;;;;;;;;4953440;28;20052;-86
2022/05/12 14:51:56;;;;;;;6.72;1.98;;;;;;;;;;4955695;28;20034;-86
2022/05/12 14:54:22;;;;;;;3.45;1.27;;;;;;;;;;4982632;28;20114;-87
2022/05/12 14:56:48;;;;;;;11.50;1.50;;;;;;;;;;4965251;28;20034;-86
2022/05/12 14:59:14;;;;;;;6.82;1.75;;;;;;;;;;4960419;28;20088;-86
2022/05/12 15:01:42;;;;;;;7.57;1.55;;;;;;;;;;4956145;28;20039;-86
2022/05/12 15:04:08;;;;;;;4.38;1.52;;;;;;;;;;4960473;28;20027;-86
2022/05/12 15:06:35;;;;;;;4.00;1.38;;;;;;;;;;4959556;28;21719;-86
2022/05/12 15:09:08;;;;;;;7.47;2.13;;;;;;;;;;4961974;28;20077;-86
2022/05/12 15:11:34;;;;;;;6.60;1.70;;;;;;;;;;4974337;28;20557;-86
2022/05/12 15:14:00;;;;;;;3.08;1.20;;;;;;;;;;4960794;28;20482;-87
2022/05/12 15:16:28;;;;;;;7.15;1.83;;;;;;;;;;4960700;28;20038;-87
2022/05/12 15:18:54;;;;;;;5.88;1.75;;;;;;;;;;4972143;28;20022;-87